createdAt,value
2022-08-10T00:01:08.106Z,100046.05
2022-08-10T00:03:34.832Z,100045.69
2022-08-10T00:06:01.541Z,100040.59
2022-08-10T00:08:28.906Z,100036.25
2022-08-10T00:10:56.217Z,100035.66
2022-08-10T00:13:23.778Z,100042.23
2022-08-10T00:15:54.655Z,100045.95
2022-08-10T00:18:31.258Z,100043.95
2022-08-10T00:21:02.827Z,100043.17
2022-08-10T00:23:29.609Z,100044.39
2022-08-10T00:25:56.356Z,100041.44
2022-08-10T00:28:23.085Z,100037.82
2022-08-10T00:30:49.822Z,100038.60
2022-08-10T00:33:16.667Z,100036.75
2022-08-10T00:35:43.512Z,100034.83
2022-08-10T00:38:10.344Z,100033.97
2022-08-10T00:40:38.211Z,100031.34
2022-08-10T00:43:06.360Z,100032.08
2022-08-10T00:45:33.766Z,100037.38
2022-08-10T00:48:00.529Z,100040.34
2022-08-10T00:50:27.371Z,100033.09
2022-08-10T00:52:54.096Z,100032.63
2022-08-10T00:55:20.822Z,100031.33
2022-08-10T00:57:54.835Z,100030.13
2022-08-10T01:00:23.656Z,100020.84
2022-08-10T01:02:50.597Z,100017.40
2022-08-10T01:05:19.422Z,100016.55
2022-08-10T01:08:05.856Z,100018.35
2022-08-10T01:10:43.592Z,100022.80
2022-08-10T01:13:17.041Z,100023.02
2022-08-10T01:16:03.051Z,100026.68
2022-08-10T01:18:54.634Z,100022.15
2022-08-10T01:22:00.375Z,100024.80
2022-08-10T01:25:01.238Z,100025.77
2022-08-10T01:27:45.277Z,100030.30
2022-08-10T01:30:13.493Z,100026.34
2022-08-10T01:32:49.306Z,100030.25
2022-08-10T01:35:39.237Z,100030.23
2022-08-10T01:38:15.079Z,100023.75
2022-08-10T01:40:49.103Z,100020.25
2022-08-10T01:43:16.556Z,100023.58
2022-08-10T01:45:46.078Z,100023.75
2022-08-10T01:48:33.900Z,100019.08
2022-08-10T01:51:01.724Z,100019.23
2022-08-10T01:53:41.014Z,100025.25
2022-08-10T01:56:10.612Z,100027.30
2022-08-10T01:58:37.416Z,100029.19
2022-08-10T02:01:04.234Z,100035.24
2022-08-10T02:03:30.992Z,100038.11
2022-08-10T02:05:57.733Z,100033.04
2022-08-10T02:08:24.529Z,100021.86
2022-08-10T02:10:51.652Z,100019.66
2022-08-10T02:13:18.850Z,100020.92
2022-08-10T02:16:01.985Z,100023.99
2022-08-10T02:18:30.104Z,100019.98
2022-08-10T02:20:56.873Z,100015.63
2022-08-10T02:23:28.970Z,100007.88
2022-08-10T02:25:56.349Z,100009.55
2022-08-10T02:28:27.302Z,100015.28
2022-08-10T02:31:18.597Z,100019.06
2022-08-10T02:33:57.486Z,100016.66
2022-08-10T02:36:29.676Z,100009.15
2022-08-10T02:39:00.993Z,100002.71
2022-08-10T02:45:03.021Z,100007.67
2022-08-10T02:45:19.194Z,100019.88
2022-08-10T02:47:26.675Z,100028.96
2022-08-10T02:50:04.138Z,100030.45
2022-08-10T02:52:38.636Z,100029.40
2022-08-10T02:55:17.425Z,100021.41
2022-08-10T02:58:17.046Z,100017.56
2022-08-10T03:00:42.569Z,100015.52
2022-08-10T03:03:11.554Z,100017.13
2022-08-10T03:05:38.289Z,100021.98
2022-08-10T03:08:06.091Z,100023.85
2022-08-10T03:10:33.671Z,100030.05
2022-08-10T03:13:01.457Z,100030.37
2022-08-10T03:15:29.414Z,100033.09
2022-08-10T03:17:57.842Z,100032.13
2022-08-10T03:20:39.783Z,100030.96
2022-08-10T03:23:16.264Z,100024.80
2022-08-10T03:25:53.455Z,100020.44
2022-08-10T03:28:28.577Z,100026.07
2022-08-10T03:30:55.853Z,100026.70
2022-08-10T03:33:23.297Z,100030.48
2022-08-10T03:36:41.943Z,100038.29
2022-08-10T03:38:40.683Z,100042.90
2022-08-10T03:41:09.816Z,100043.97
2022-08-10T03:43:36.554Z,100041.31
2022-08-10T03:46:04.253Z,100039.54
2022-08-10T03:48:33.298Z,100035.39
2022-08-10T03:51:16.073Z,100036.10
2022-08-10T03:54:03.612Z,100039.13
2022-08-10T03:56:32.261Z,100046.27
2022-08-10T03:59:00.133Z,100048.92
2022-08-10T04:02:41.159Z,100045.52
2022-08-10T04:04:18.961Z,100041.73
2022-08-10T04:06:51.435Z,100032.35
2022-08-10T04:09:21.300Z,100022.48
2022-08-10T04:11:48.032Z,100015.52
2022-08-10T04:14:38.821Z,100009.30
2022-08-10T04:17:01.484Z,100006.44
2022-08-10T04:19:28.306Z,100006.76
2022-08-10T04:22:00.012Z,100010.37
2022-08-10T04:24:31.927Z,100023.20
2022-08-10T04:27:01.152Z,100029.02
2022-08-10T04:29:28.137Z,100037.99
2022-08-10T04:31:54.888Z,100040.88
2022-08-10T04:34:21.721Z,100047.33
2022-08-10T04:36:49.835Z,100049.88
2022-08-10T04:39:16.692Z,100051.56
2022-08-10T04:41:47.317Z,100054.10
2022-08-10T04:44:14.439Z,100049.01
2022-08-10T04:46:42.862Z,100051.56
2022-08-10T04:49:55.096Z,100049.84
2022-08-10T04:52:10.106Z,100043.54
2022-08-10T04:54:36.825Z,100045.11
2022-08-10T04:57:03.979Z,100045.34
2022-08-10T04:59:30.700Z,100043.07
2022-08-10T05:02:28.179Z,100044.71
2022-08-10T05:04:44.107Z,100050.59
2022-08-10T05:07:16.312Z,100054.73
2022-08-10T05:10:01.422Z,100051.99
2022-08-10T05:12:31.571Z,100046.79
2022-08-10T05:14:58.339Z,100043.59
2022-08-10T05:17:25.165Z,100037.52
2022-08-10T05:20:01.905Z,100039.77
2022-08-10T05:22:33.509Z,100040.91
2022-08-10T05:25:00.445Z,100041.31
2022-08-10T05:27:27.232Z,100037.69
2022-08-10T05:30:01.373Z,100037.46
2022-08-10T05:32:30.447Z,100037.05
2022-08-10T05:34:57.702Z,100038.14
2022-08-10T05:38:13.276Z,100045.40
2022-08-10T05:40:11.626Z,100042.77
2022-08-10T05:42:38.490Z,100050.11
2022-08-10T05:45:05.544Z,100059.92
2022-08-10T05:48:56.557Z,100071.52
2022-08-10T05:50:25.395Z,100076.46
2022-08-10T05:52:52.436Z,100071.33
2022-08-10T05:55:19.328Z,100073.38
2022-08-10T05:57:46.166Z,100072.85
2022-08-10T06:00:36.340Z,100068.84
2022-08-10T06:03:04.715Z,100062.98
2022-08-10T06:05:32.708Z,100055.60
2022-08-10T06:08:04.777Z,100054.23
2022-08-10T06:10:35.335Z,100053.83
2022-08-10T06:13:30.025Z,100053.52
2022-08-10T06:16:03.957Z,100054.48
2022-08-10T06:18:30.906Z,100055.87
2022-08-10T06:20:57.614Z,100050.45
2022-08-10T06:23:25.731Z,100052.76
2022-08-10T06:26:12.167Z,100051.10
2022-08-10T06:28:41.325Z,100050.91
2022-08-10T06:31:08.137Z,100050.02
2022-08-10T06:33:37.051Z,100049.55
2022-08-10T06:36:04.325Z,100055.55
2022-08-10T06:38:32.917Z,100053.44
2022-08-10T06:41:01.733Z,100054.04
2022-08-10T06:43:28.496Z,100050.75
2022-08-10T06:46:07.130Z,100053.41
2022-08-10T06:48:42.019Z,100053.23
2022-08-10T06:51:13.790Z,100054.29
2022-08-10T06:53:53.012Z,100053.36
2022-08-10T06:56:35.743Z,100051.59
2022-08-10T06:59:44.787Z,100053.67
2022-08-10T07:02:25.396Z,100054.73
2022-08-10T07:05:00.869Z,100053.61
2022-08-10T07:07:28.896Z,100050.80
2022-08-10T07:09:55.800Z,100045.38
2022-08-10T07:12:22.538Z,100048.09
2022-08-10T07:14:50.694Z,100046.86
2022-08-10T07:17:22.817Z,100050.09
2022-08-10T07:19:53.110Z,100054.42
2022-08-10T07:23:08.154Z,100054.17
2022-08-10T07:25:13.689Z,100053.85
2022-08-10T07:27:59.955Z,100058.51
2022-08-10T07:30:30.497Z,100058.08
2022-08-10T07:32:57.555Z,100055.40
2022-08-10T07:35:24.689Z,100052.30
2022-08-10T07:37:51.880Z,100048.23
2022-08-10T07:40:20.402Z,100052.02
2022-08-10T07:42:48.964Z,100048.45
2022-08-10T07:45:15.940Z,100055.04
2022-08-10T07:47:54.521Z,100059.42
2022-08-10T07:50:23.283Z,100066.28
2022-08-10T07:52:50.214Z,100064.77
2022-08-10T07:55:18.357Z,100062.34
2022-08-10T07:57:46.788Z,100057.74
2022-08-10T08:00:14.423Z,100053.77
2022-08-10T08:02:56.942Z,100052.28
2022-08-10T08:05:59.116Z,100053.34
2022-08-10T08:08:14.918Z,100057.19
2022-08-10T08:10:41.822Z,100060.66
2022-08-10T08:13:08.886Z,100060.11
2022-08-10T08:16:17.533Z,100059.17
2022-08-10T08:18:25.272Z,100058.05
2022-08-10T08:20:52.593Z,100062.79
2022-08-10T08:24:05.335Z,100058.02
2022-08-10T08:26:08.254Z,100051.38
2022-08-10T08:28:35.711Z,100051.36
2022-08-10T08:31:03.006Z,100050.54
2022-08-10T08:33:41.517Z,100055.69
2022-08-10T08:36:10.200Z,100058.30
2022-08-10T08:38:37.283Z,100055.66
2022-08-10T08:41:28.386Z,100053.92
2022-08-10T08:44:06.209Z,100047.56
2022-08-10T08:46:58.916Z,100041.35
2022-08-10T08:50:09.118Z,100038.25
2022-08-10T08:52:38.908Z,100049.29
2022-08-10T08:55:52.359Z,100056.52
2022-08-10T08:58:37.397Z,100059.59
2022-08-10T09:01:38.307Z,100064.53
2022-08-10T09:04:23.678Z,100068.33
2022-08-10T09:08:00.510Z,100070.17
2022-08-10T09:10:26.957Z,100062.35
2022-08-10T09:13:29.591Z,100056.60
2022-08-10T09:16:05.654Z,100057.99
2022-08-10T09:18:47.975Z,100048.45
2022-08-10T09:21:43.439Z,100044.77
2022-08-10T09:24:32.429Z,100047.86
2022-08-10T09:27:01.393Z,100052.34
2022-08-10T09:29:30.544Z,100047.21
2022-08-10T09:36:15.283Z,100048.80
2022-08-10T09:36:27.544Z,100050.26
2022-08-10T09:38:20.354Z,100049.14
2022-08-10T09:40:59.956Z,100043.77
2022-08-10T09:43:59.399Z,100048.02
2022-08-10T09:47:03.025Z,100047.38
2022-08-10T09:49:54.046Z,100042.33
2022-08-10T09:52:29.067Z,100041.91
2022-08-10T09:55:24.275Z,100039.80
2022-08-10T09:58:30.144Z,100033.83
2022-08-10T10:03:11.818Z,100034.30
2022-08-10T10:05:58.598Z,100027.53
2022-08-10T10:08:48.822Z,100023.86
2022-08-10T10:11:39.235Z,100024.56
2022-08-10T10:14:16.209Z,100026.82
2022-08-10T10:16:47.903Z,100029.00
2022-08-10T10:19:46.658Z,100032.27
2022-08-10T10:22:16.553Z,100027.02
2022-08-10T10:24:48.018Z,100022.39
2022-08-10T10:27:27.805Z,100015.52
2022-08-10T10:30:14.975Z,100015.45
2022-08-10T10:33:02.097Z,100016.77
2022-08-10T10:35:41.355Z,100017.55
2022-08-10T10:38:10.472Z,100013.89
2022-08-10T10:41:18.026Z,100010.42
2022-08-10T10:44:22.007Z,100003.51
2022-08-10T10:47:03.217Z,100002.89
2022-08-10T10:49:55.835Z,99999.73
2022-08-10T10:52:55.287Z,99998.06
2022-08-10T10:55:30.420Z,100002.65
2022-08-10T10:58:20.666Z,100004.66
2022-08-10T11:01:30.628Z,100006.01
2022-08-10T11:04:22.523Z,100009.63
2022-08-10T11:07:01.764Z,100007.96
2022-08-10T11:10:05.450Z,100000.21
2022-08-10T11:12:34.206Z,99993.70
2022-08-10T11:15:20.896Z,99991.64
2022-08-10T11:17:51.208Z,99991.52
2022-08-10T11:20:24.739Z,99998.34
2022-08-10T11:23:12.715Z,100001.15
2022-08-10T11:25:42.778Z,99999.12
2022-08-10T11:28:37.112Z,100000.39
2022-08-10T11:31:04.187Z,99997.77
2022-08-10T11:34:46.573Z,99997.93
2022-08-10T11:36:44.926Z,99990.20
2022-08-10T11:39:18.520Z,99987.02
2022-08-10T11:42:09.552Z,99987.92
2022-08-10T11:44:34.795Z,99989.63
2022-08-10T11:47:05.400Z,99987.09
2022-08-10T11:49:34.260Z,99985.13
2022-08-10T11:52:15.958Z,99984.98
2022-08-10T11:54:47.069Z,99983.23
2022-08-10T11:57:17.742Z,99982.74
2022-08-10T11:59:59.701Z,99985.04
2022-08-10T12:02:33.190Z,99991.11
2022-08-10T12:05:07.167Z,99990.77
2022-08-10T12:10:06.916Z,99989.59
2022-08-10T12:10:22.384Z,99986.48
2022-08-10T12:13:19.776Z,99988.90
2022-08-10T12:15:48.891Z,99984.67
2022-08-10T12:18:22.458Z,99985.11
2022-08-10T12:20:52.562Z,99979.01
2022-08-10T12:23:26.780Z,99977.96
2022-08-10T12:26:09.533Z,99975.58
2022-08-10T12:28:50.784Z,99976.96
2022-08-10T12:31:23.798Z,99978.52
2022-08-10T12:34:01.441Z,99975.73
2022-08-10T12:37:05.032Z,99973.17
2022-08-10T12:39:31.962Z,99971.29
2022-08-10T12:42:07.658Z,99971.32
2022-08-10T12:44:41.439Z,99969.02
2022-08-10T12:47:22.528Z,99974.55
2022-08-10T12:50:31.426Z,99977.85
2022-08-10T12:53:27.567Z,99978.52
2022-08-10T12:55:54.807Z,99969.79
2022-08-10T12:58:57.200Z,99963.69
2022-08-10T13:01:17.163Z,99958.09
2022-08-10T13:04:23.258Z,99958.90
2022-08-10T13:06:46.250Z,99966.15
2022-08-10T13:09:14.184Z,99965.85
2022-08-10T13:12:36.105Z,99968.17
2022-08-10T13:14:53.624Z,99969.44
2022-08-10T13:17:38.697Z,99965.79
2022-08-10T13:20:15.140Z,99963.30
2022-08-10T13:22:42.053Z,99958.73
2022-08-10T13:25:12.311Z,99959.39
2022-08-10T13:28:01.428Z,99961.91
2022-08-10T13:30:37.796Z,99959.84
2022-08-10T13:33:09.684Z,99958.89
2022-08-10T13:35:36.619Z,99956.68
2022-08-10T13:38:04.410Z,99954.50
2022-08-10T13:40:31.649Z,99950.69
2022-08-10T13:42:59.739Z,99953.75
2022-08-10T13:45:26.741Z,99954.24
2022-08-10T13:47:56.401Z,99956.34
2022-08-10T13:50:35.444Z,99954.86
2022-08-10T13:53:11.697Z,99952.99
2022-08-10T13:55:53.827Z,99949.61
2022-08-10T13:58:30.739Z,99947.21
2022-08-10T14:00:59.162Z,99944.39
2022-08-10T14:03:26.450Z,99942.36
2022-08-10T14:05:54.537Z,99933.55
2022-08-10T14:08:27.788Z,99935.90
2022-08-10T14:11:09.800Z,99933.28
2022-08-10T14:14:00.003Z,99925.36
2022-08-10T14:16:27.350Z,99927.17
2022-08-10T14:18:55.584Z,99926.95
2022-08-10T14:21:22.506Z,99925.70
2022-08-10T14:23:53.177Z,99927.97
2022-08-10T14:26:23.496Z,99931.61
2022-08-10T14:28:53.586Z,99930.40
2022-08-10T14:31:22.448Z,99932.67
2022-08-10T14:33:53.417Z,99931.66
2022-08-10T14:36:29.606Z,99928.11
2022-08-10T14:38:56.493Z,99929.14
2022-08-10T14:42:01.784Z,99929.02
2022-08-10T14:44:17.758Z,99935.90
2022-08-10T14:46:46.578Z,99938.83
2022-08-10T14:49:25.565Z,99934.70
2022-08-10T14:51:52.794Z,99927.61
2022-08-10T14:54:29.726Z,99923.60
2022-08-10T14:56:57.187Z,99922.73
2022-08-10T14:59:45.899Z,99920.69
2022-08-10T15:02:38.373Z,99925.55
2022-08-10T15:05:02.814Z,99922.80
2022-08-10T15:07:29.831Z,99924.36
2022-08-10T15:10:00.151Z,99922.90
2022-08-10T15:12:33.465Z,99913.80
2022-08-10T15:15:01.177Z,99911.35
2022-08-10T15:17:37.486Z,99908.80
2022-08-10T15:20:28.570Z,99910.19
2022-08-10T15:23:00.041Z,99912.17
2022-08-10T15:25:28.261Z,99910.05
2022-08-10T15:27:57.338Z,99909.53
2022-08-10T15:30:32.381Z,99911.45
2022-08-10T15:33:21.178Z,99917.27
2022-08-10T15:36:25.755Z,99914.23
2022-08-10T15:39:00.376Z,99913.94
2022-08-10T15:41:59.085Z,99910.92
2022-08-10T15:44:35.710Z,99910.04
2022-08-10T15:47:03.003Z,99913.38
2022-08-10T15:49:39.421Z,99917.55
2022-08-10T15:52:39.423Z,99920.52
2022-08-10T15:55:41.421Z,99922.12
2022-08-10T15:58:05.930Z,99920.33
2022-08-10T16:00:34.087Z,99918.77
2022-08-10T16:03:07.072Z,99922.95
2022-08-10T16:06:01.549Z,99921.50
2022-08-10T16:10:24.956Z,99916.44
2022-08-10T16:11:43.941Z,99913.05
2022-08-10T16:14:16.466Z,99912.88
2022-08-10T16:16:45.903Z,99909.92
2022-08-10T16:19:23.914Z,99912.44
2022-08-10T16:22:35.537Z,99915.00
2022-08-10T16:25:11.702Z,99913.94
2022-08-10T16:27:38.464Z,99914.63
2022-08-10T16:30:05.923Z,99922.39
2022-08-10T16:32:32.947Z,99923.80
2022-08-10T16:35:00.163Z,99926.04
2022-08-10T16:37:57.603Z,99921.54
2022-08-10T16:40:24.185Z,99913.21
2022-08-10T16:42:51.167Z,99913.55
2022-08-10T16:45:20.980Z,99923.39
2022-08-10T16:47:51.950Z,99927.41
2022-08-10T16:50:27.251Z,99931.67
2022-08-10T16:52:54.061Z,99934.77
2022-08-10T16:55:23.730Z,99936.50
2022-08-10T16:58:08.894Z,99930.82
2022-08-10T17:00:35.778Z,99925.92
2022-08-10T17:03:04.521Z,99919.36
2022-08-10T17:06:09.906Z,99919.80
2022-08-10T17:08:48.362Z,99923.53
2022-08-10T17:11:16.282Z,99925.61
2022-08-10T17:13:43.076Z,99925.96
2022-08-10T17:16:10.286Z,99926.10
2022-08-10T17:18:38.333Z,99927.41
2022-08-10T17:21:14.987Z,99930.52
2022-08-10T17:23:46.893Z,99931.60
2022-08-10T17:26:19.637Z,99925.80
2022-08-10T17:29:08.090Z,99928.86
2022-08-10T17:31:54.984Z,99927.32
2022-08-10T17:34:25.450Z,99933.40
2022-08-10T17:36:57.102Z,99934.48
2022-08-10T17:39:28.684Z,99936.08
2022-08-10T17:41:56.928Z,99938.27
2022-08-10T17:44:23.742Z,99939.33
2022-08-10T17:46:50.561Z,99943.96
2022-08-10T17:49:18.155Z,99946.11
2022-08-10T17:51:52.791Z,99949.80
2022-08-10T17:54:22.006Z,99951.56
2022-08-10T17:56:49.277Z,99958.51
2022-08-10T17:59:17.647Z,99958.42
2022-08-10T18:02:01.294Z,99960.41
2022-08-10T18:04:35.586Z,99963.86
2022-08-10T18:07:08.441Z,99967.66
2022-08-10T18:09:40.453Z,99972.83
2022-08-10T18:12:17.498Z,99969.75
2022-08-10T18:14:46.930Z,99968.20
2022-08-10T18:17:15.839Z,99965.97
2022-08-10T18:19:45.543Z,99965.70
2022-08-10T18:22:13.084Z,99963.53
2022-08-10T18:24:40.014Z,99962.35
2022-08-10T18:27:06.864Z,99963.18
2022-08-10T18:29:35.081Z,99963.66
2022-08-10T18:32:02.782Z,99963.92
2022-08-10T18:34:30.516Z,99957.73
2022-08-10T18:36:57.330Z,99956.30
2022-08-10T18:39:26.355Z,99952.65
2022-08-10T18:42:05.452Z,99952.65
2022-08-10T18:44:37.461Z,99953.77
2022-08-10T18:47:07.004Z,99955.38
2022-08-10T18:49:55.094Z,99957.92
2022-08-10T18:52:23.362Z,99956.00
2022-08-10T18:54:51.519Z,99959.63
2022-08-10T18:57:32.865Z,99962.74
2022-08-10T19:00:13.527Z,99962.28
2022-08-10T19:03:13.579Z,99962.33
2022-08-10T19:06:10.221Z,99965.63
2022-08-10T19:08:37.211Z,99961.70
2022-08-10T19:11:25.942Z,99958.58
2022-08-10T19:14:05.654Z,99951.89
2022-08-10T19:16:41.959Z,99953.96
2022-08-10T19:19:23.033Z,99951.95
2022-08-10T19:22:00.732Z,99951.73
2022-08-10T19:24:33.850Z,99954.42
2022-08-10T19:27:19.767Z,99952.98
2022-08-10T19:30:09.135Z,99959.14
2022-08-10T19:32:43.352Z,99968.21
2022-08-10T19:36:03.769Z,99969.30
2022-08-10T19:38:36.131Z,99965.80
2022-08-10T19:41:31.902Z,99961.80
2022-08-10T19:44:06.094Z,99960.14
2022-08-10T19:47:17.799Z,99958.94
2022-08-10T19:49:49.164Z,99959.29
2022-08-10T19:52:42.136Z,99953.64
2022-08-10T19:55:54.201Z,99954.77
2022-08-10T19:58:47.573Z,99953.47
2022-08-10T20:01:14.599Z,99952.44
2022-08-10T20:03:44.207Z,99950.90
2022-08-10T20:06:28.340Z,99953.51
2022-08-10T20:09:29.534Z,99955.52
2022-08-10T20:12:01.681Z,99953.67
2022-08-10T20:14:43.878Z,99956.72
2022-08-10T20:17:18.740Z,99956.89
2022-08-10T20:20:01.087Z,99959.55
2022-08-10T20:22:30.555Z,99953.11
2022-08-10T20:25:16.219Z,99949.19
2022-08-10T20:28:06.109Z,99941.18
2022-08-10T20:30:34.667Z,99938.12
2022-08-10T20:33:12.427Z,99929.59
2022-08-10T20:35:51.877Z,99913.96
2022-08-10T20:38:30.933Z,99889.30
2022-08-10T20:41:45.995Z,99894.27
2022-08-10T20:44:22.294Z,99920.66
2022-08-10T20:47:10.264Z,99940.55
2022-08-10T20:50:15.163Z,99958.93
2022-08-10T20:52:42.580Z,99962.02
2022-08-10T20:55:10.729Z,99961.17
2022-08-10T20:57:55.383Z,99964.52
2022-08-10T21:00:24.495Z,99965.05
2022-08-10T21:02:59.816Z,99967.81
2022-08-10T21:06:14.089Z,99965.48
2022-08-10T21:08:56.877Z,99963.27
2022-08-10T21:12:00.709Z,99957.64
2022-08-10T21:14:31.833Z,99951.41
2022-08-10T21:17:20.364Z,99941.86
2022-08-10T21:20:01.395Z,99937.73
2022-08-10T21:22:31.695Z,99935.45
2022-08-10T21:25:18.934Z,99922.73
2022-08-10T21:28:04.134Z,99921.11
2022-08-10T21:30:37.044Z,99917.41
2022-08-10T21:33:09.393Z,99917.68
2022-08-10T21:35:43.003Z,99917.55
2022-08-10T21:38:19.548Z,99914.80
2022-08-10T21:41:18.783Z,99912.90
2022-08-10T21:44:18.692Z,99898.13
2022-08-10T21:47:07.510Z,99892.49
2022-08-10T21:49:57.482Z,99892.96
2022-08-10T21:53:03.901Z,99889.67
2022-08-10T21:56:00.698Z,99884.78
2022-08-10T21:59:18.759Z,99879.52
2022-08-10T22:02:08.285Z,99874.10
2022-08-10T22:04:53.674Z,99873.45
2022-08-10T22:07:39.076Z,99881.20
2022-08-10T22:10:25.850Z,99891.60
2022-08-10T22:13:13.248Z,99901.98
2022-08-10T22:16:10.942Z,99906.20
2022-08-10T22:20:33.242Z,99913.30
2022-08-10T22:23:28.203Z,99918.23
2022-08-10T22:26:22.999Z,99914.33
2022-08-10T22:29:10.832Z,99911.73
2022-08-10T22:32:16.635Z,99915.16
2022-08-10T22:35:08.348Z,99915.58
2022-08-10T22:38:13.419Z,99905.98
2022-08-10T22:41:02.417Z,99899.08
2022-08-10T22:43:49.881Z,99889.52
2022-08-10T22:46:42.416Z,99873.59
2022-08-10T22:49:09.202Z,99857.65
2022-08-10T22:51:52.944Z,99845.88
2022-08-10T22:54:44.327Z,99834.53
2022-08-10T22:57:33.363Z,99838.67
2022-08-10T23:00:15.819Z,99845.57
2022-08-10T23:03:00.779Z,99849.25
2022-08-10T23:05:34.611Z,99841.33
2022-08-10T23:08:05.266Z,99842.02
2022-08-10T23:10:39.666Z,99854.83
2022-08-10T23:13:35.489Z,99865.19
2022-08-10T23:16:23.236Z,99868.65
2022-08-10T23:19:09.618Z,99867.86
2022-08-10T23:22:02.969Z,99869.64
2022-08-10T23:24:47.196Z,99869.65
2022-08-10T23:27:37.442Z,99874.39
2022-08-10T23:30:09.826Z,99874.51
2022-08-10T23:32:39.856Z,99875.11
2022-08-10T23:36:29.660Z,99876.86
2022-08-10T23:37:56.803Z,99877.70
2022-08-10T23:40:23.571Z,99874.51
2022-08-10T23:42:51.408Z,99877.23
2022-08-10T23:45:26.770Z,99880.66
2022-08-10T23:47:59.364Z,99885.38
2022-08-10T23:50:26.281Z,99880.96
2022-08-10T23:52:55.330Z,99876.55
2022-08-10T23:55:24.418Z,99866.19
2022-08-10T23:57:55.589Z,99862.70
